Terminal Aerodrome Forecast
Issued by NWS Sioux Falls, SD

Home | Current Version | Previous Version | Text Only | Print | Product List | Glossary Off
Versions: 1 2 3 4 5 6 7 8 9 10 11 12 13 14 15 16 17 18 19 20 21 22 23

000
FTUS43 KFSD 240500
TAFFSD
TAF
KFSD 240539Z 2406/2506 10005KT P6SM FEW250
     FM241000 13009KT P6SM BKN120
      TEMPO 2414/2417 6SM TSRA BKN050CB
     FM241700 17015G24KT P6SM SCT050 BKN100
     FM250200 15013KT P6SM BKN120=

USA.gov is the U.S. government's official web portal to all federal, state and local government web resources and services.